Time;durP1;ratioP1;P1;durP2;ratioP2;P2;SDS_P1;SDS_P2;PMS_P1;PMS_P2;Temp;Humidity;BMP_temperature;BMP_pressure;BME280_temperature;BME280_humidity;BME280_pressure;Samples;Min_cycle;Max_cycle;Signal;HPM_P1;HPM_P2
2022/04/23 00:02:10;;;;;;;5.10;1.98;;;;;;;14.90;63.63;93681.81;5033498;28;20205;-64
2022/04/23 00:04:36;;;;;;;5.20;2.00;;;;;;;15.08;62.92;93679.66;5033338;28;20575;-61
2022/04/23 00:07:02;;;;;;;4.20;2.10;;;;;;;15.25;61.34;93698.16;5033084;28;20199;-63
2022/04/23 00:09:27;;;;;;;5.85;2.00;;;;;;;15.21;61.86;93691.81;5033229;28;20668;-61
2022/04/23 00:11:55;;;;;;;4.30;1.95;;;;;;;14.75;61.64;93712.53;5015487;28;20200;-60
2022/04/23 00:14:21;;;;;;;5.25;1.80;;;;;;;14.91;61.07;93712.31;5031783;28;20195;-63
2022/04/23 00:16:49;;;;;;;5.75;1.70;;;;;;;14.99;62.00;93699.44;5032422;28;20214;-63
2022/04/23 00:19:14;;;;;;;3.10;1.88;;;;;;;15.27;58.99;93744.84;5033162;28;20178;-61
2022/04/23 00:21:40;;;;;;;2.53;1.90;;;;;;;15.33;60.46;93698.81;5040023;23;20237;-61
2022/04/23 00:24:06;;;;;;;5.93;2.30;;;;;;;14.95;62.52;93648.78;5031719;28;20182;-62
2022/04/23 00:26:31;;;;;;;3.80;1.77;;;;;;;15.00;60.32;93710.47;5015213;28;20198;-64
2022/04/23 00:28:56;;;;;;;4.88;1.73;;;;;;;15.24;59.45;93743.44;5033124;28;20190;-62
2022/04/23 00:31:22;;;;;;;2.45;1.80;;;;;;;15.29;59.00;93740.34;5033009;28;20246;-62
2022/04/23 00:33:47;;;;;;;10.18;2.40;;;;;;;15.70;55.09;93779.81;5033425;28;20186;-62
2022/04/23 00:36:13;;;;;;;6.65;1.88;;;;;;;16.00;53.68;93745.38;5032437;28;20221;-63
2022/04/23 00:38:42;;;;;;;4.22;1.50;;;;;;;16.24;53.28;93757.81;5032907;28;20224;-61
2022/04/23 00:41:08;;;;;;;9.35;2.50;;;;;;;16.50;51.78;93763.16;5033072;28;20175;-62
2022/04/23 00:43:34;;;;;;;5.18;2.05;;;;;;;16.54;52.54;93748.97;5031571;28;20273;-61
2022/04/23 00:46:01;;;;;;;11.38;2.72;;;;;;;16.61;50.98;93764.41;5031357;28;20590;-63
2022/04/23 00:48:26;;;;;;;9.48;2.35;;;;;;;16.75;50.94;93748.09;5032705;28;20687;-63
2022/04/23 00:50:55;;;;;;;4.15;1.70;;;;;;;16.63;51.46;93729.88;5032498;28;20201;-64
2022/04/23 00:53:21;;;;;;;4.53;1.70;;;;;;;16.52;52.86;93714.25;5032354;28;20198;-62
2022/04/23 00:55:47;;;;;;;6.28;1.95;;;;;;;16.73;53.13;93688.47;5032948;28;20243;-61
2022/04/23 00:58:16;;;;;;;7.95;1.90;;;;;;;16.74;53.68;93688.31;5032212;28;20225;-63
2022/04/23 01:00:43;;;;;;;9.93;2.38;;;;;;;16.55;54.41;93673.59;5033133;28;20216;-63
2022/04/23 01:03:08;;;;;;;4.30;1.60;;;;;;;16.41;54.70;93665.97;5033011;28;20295;-63
2022/04/23 01:05:34;;;;;;;8.63;2.13;;;;;;;16.45;55.19;93664.63;5033076;28;20209;-63
2022/04/23 01:08:02;;;;;;;5.50;2.10;;;;;;;16.31;53.53;93704.78;5032634;28;20206;-63
2022/04/23 01:10:29;;;;;;;9.85;2.38;;;;;;;16.26;54.20;93689.16;5032484;28;20233;-61
2022/04/23 01:12:54;;;;;;;7.88;1.80;;;;;;;16.09;54.61;93685.31;5032428;28;20225;-62
2022/04/23 01:15:21;;;;;;;5.47;1.95;;;;;;;15.99;54.92;93674.59;5032438;28;20691;-62
2022/04/23 01:17:49;;;;;;;5.60;2.00;;;;;;;16.11;53.33;93709.00;5031320;28;20194;-61
2022/04/23 01:20:16;;;;;;;5.07;2.10;;;;;;;16.15;53.54;93702.50;5032657;28;20190;-62
2022/04/23 01:22:43;;;;;;;8.65;2.40;;;;;;;16.28;52.38;93719.78;5032770;28;20657;-60
2022/04/23 01:25:12;;;;;;;5.32;2.00;;;;;;;16.36;53.42;93679.34;5032854;28;20675;-61
2022/04/23 01:27:39;;;;;;;6.03;2.47;;;;;;;16.48;52.68;93687.34;5032706;28;20227;-62
2022/04/23 01:30:07;;;;;;;9.23;2.92;;;;;;;16.26;52.94;93701.97;5030752;28;20205;-61
2022/04/23 01:32:33;;;;;;;6.35;2.15;;;;;;;16.23;52.30;93712.63;5032358;28;20194;-62
2022/04/23 01:34:59;;;;;;;3.70;1.98;;;;;;;16.30;51.73;93736.53;5032001;28;20647;-60
2022/04/23 01:37:25;;;;;;;5.60;2.28;;;;;;;16.44;51.69;93725.38;5032317;28;20683;-63
2022/04/23 01:39:50;;;;;;;6.38;1.80;;;;;;;16.55;50.58;93739.50;5032344;28;20662;-62
2022/04/23 01:42:18;;;;;;;9.45;2.20;;;;;;;16.63;50.39;93735.03;5030695;28;20206;-62
2022/04/23 01:44:52;;;;;;;7.00;2.28;;;;;;;16.59;51.06;93728.69;5033016;28;20675;-63
2022/04/23 01:47:18;;;;;;;6.13;2.40;;;;;;;16.66;54.63;93665.34;5032157;28;20283;-61
2022/04/23 01:49:45;;;;;;;4.22;1.90;;;;;;;16.41;55.22;93661.66;5031765;28;20224;-63
2022/04/23 01:52:11;;;;;;;4.57;1.58;;;;;;;16.28;56.10;93656.41;5031618;28;20300;-62
2022/04/23 01:54:37;;;;;;;6.15;1.83;;;;;;;15.77;57.86;93626.91;5031801;28;20182;-62
2022/04/23 01:57:04;;;;;;;8.55;2.38;;;;;;;15.49;58.45;93601.28;5031711;28;20229;-61
2022/04/23 01:59:30;;;;;;;9.88;2.45;;;;;;;15.24;60.26;93589.00;5030552;28;20663;-64
2022/04/23 02:01:56;;;;;;;5.05;2.05;;;;;;;15.40;60.52;93588.75;5030535;28;20298;-63
2022/04/23 02:04:22;;;;;;;6.55;2.42;;;;;;;15.18;61.25;93584.63;5030448;28;20205;-62
2022/04/23 02:06:47;;;;;;;5.45;2.25;;;;;;;14.91;63.18;93558.00;5031757;28;20203;-61
2022/04/23 02:09:13;;;;;;;3.28;2.00;;;;;;;15.00;63.14;93585.84;5032089;28;20233;-62
2022/04/23 02:11:38;;;;;;;5.00;2.30;;;;;;;14.86;63.12;93586.72;5034196;28;20225;-62
2022/04/23 02:14:04;;;;;;;3.17;1.95;;;;;;;14.57;64.60;93555.28;5035557;28;20181;-61
2022/04/23 02:16:30;;;;;;;6.22;2.35;;;;;;;14.24;67.33;93519.88;5035403;28;20210;-60
2022/04/23 02:18:57;;;;;;;4.15;2.10;;;;;;;13.95;68.17;93531.94;5035535;28;20201;-61
2022/04/23 02:21:25;;;;;;;5.03;2.30;;;;;;;13.65;69.37;93522.69;5035924;28;20191;-62
2022/04/23 02:23:53;;;;;;;2.23;1.60;;;;;;;14.03;68.79;93542.06;5035424;28;20174;-62
2022/04/23 02:26:20;;;;;;;5.40;2.27;;;;;;;14.08;68.84;93552.53;5035341;28;20215;-61
2022/04/23 02:28:47;;;;;;;2.70;1.90;;;;;;;13.61;70.14;93534.22;5035254;28;20201;-63
2022/04/23 02:31:13;;;;;;;3.53;1.88;;;;;;;13.96;69.53;93546.28;5035034;28;20197;-61
2022/04/23 02:33:39;;;;;;;2.25;1.80;;;;;;;13.91;68.88;93551.13;5035292;28;20244;-61
2022/04/23 02:36:06;;;;;;;3.63;2.17;;;;;;;13.79;69.26;93544.88;5035257;28;20683;-61
2022/04/23 02:38:32;;;;;;;5.63;2.22;;;;;;;13.60;70.53;93550.50;5034961;28;20206;-61
2022/04/23 02:40:58;;;;;;;4.63;2.30;;;;;;;13.60;70.55;93566.63;5042233;23;20222;-60
2022/04/23 02:43:23;;;;;;;4.88;1.90;;;;;;;13.27;72.47;93544.94;5034815;28;20676;-60
2022/04/23 02:45:49;;;;;;;3.60;1.98;;;;;;;13.41;71.27;93570.47;5035245;28;20190;-62
2022/04/23 02:48:14;;;;;;;5.35;1.95;;;;;;;13.68;69.73;93594.63;5034848;28;20190;-61
2022/04/23 02:50:40;;;;;;;3.67;2.37;;;;;;;13.69;69.90;93585.22;5034932;28;20574;-62
2022/04/23 02:53:07;;;;;;;2.73;1.83;;;;;;;13.66;70.19;93560.81;5034990;28;20202;-63
2022/04/23 02:55:34;;;;;;;4.88;2.38;;;;;;;13.67;70.38;93562.41;5034563;28;20194;-61
2022/04/23 02:58:10;;;;;;;4.97;2.25;;;;;;;13.69;71.25;93562.22;5034877;28;20194;-60
2022/04/23 03:00:42;;;;;;;3.78;2.25;;;;;;;13.84;70.93;93568.13;5034959;28;20190;-60
2022/04/23 03:03:08;;;;;;;6.10;2.78;;;;;;;13.80;71.24;93552.34;5033272;28;20320;-63
2022/04/23 03:05:35;;;;;;;5.28;2.40;;;;;;;13.96;70.22;93564.16;5033443;28;20190;-62
2022/04/23 03:08:00;;;;;;;3.65;2.50;;;;;;;13.62;71.69;93558.78;5034751;28;20225;-61
2022/04/23 03:10:29;;;;;;;6.17;2.40;;;;;;;13.51;71.11;93564.31;5034946;28;20204;-61
2022/04/23 03:12:57;;;;;;;5.50;2.60;;;;;;;13.65;71.63;93546.47;5034254;28;20206;-61
2022/04/23 03:15:24;;;;;;;6.20;2.60;;;;;;;13.52;71.89;93535.25;5034544;28;20194;-62
2022/04/23 03:17:50;;;;;;;11.13;2.70;;;;;;;13.46;73.06;93529.91;5034275;28;20256;-62
2022/04/23 03:20:16;;;;;;;8.67;2.43;;;;;;;13.67;70.84;93556.50;5032593;28;20616;-62
2022/04/23 03:22:42;;;;;;;7.00;2.50;;;;;;;13.61;71.08;93549.53;5032599;28;20582;-62
2022/04/23 03:25:09;;;;;;;3.50;2.23;;;;;;;13.85;70.02;93562.84;5034137;28;20187;-62
2022/04/23 03:27:35;;;;;;;3.38;1.98;;;;;;;13.88;70.48;93562.50;5034059;28;20229;-62
2022/04/23 03:30:02;;;;;;;5.63;2.40;;;;;;;13.65;69.75;93559.25;5016767;28;20268;-60
2022/04/23 03:32:27;;;;;;;5.20;2.40;;;;;;;13.43;71.28;93548.09;5033508;28;20202;-62
2022/04/23 03:34:53;;;;;;;4.30;2.40;;;;;;;13.44;71.48;93556.56;5032713;28;20573;-62
2022/04/23 03:37:19;;;;;;;8.55;2.92;;;;;;;13.52;71.65;93556.47;5032454;28;20751;-63
2022/04/23 03:39:44;;;;;;;4.13;2.10;;;;;;;13.41;71.02;93562.78;5033840;28;20516;-61
2022/04/23 03:42:11;;;;;;;5.20;2.33;;;;;;;13.79;70.13;93572.97;5034302;28;20210;-59
2022/04/23 03:44:37;;;;;;;5.28;2.25;;;;;;;13.64;71.26;93572.16;5016138;28;20191;-61
2022/04/23 03:47:03;;;;;;;5.28;1.90;;;;;;;13.47;71.13;93576.66;5033692;28;20263;-62
2022/04/23 03:49:29;;;;;;;7.95;2.72;;;;;;;13.59;71.04;93574.47;5032513;28;20190;-62
2022/04/23 03:51:56;;;;;;;4.22;2.28;;;;;;;13.56;72.13;93562.03;5032467;28;20202;-60
2022/04/23 03:54:21;;;;;;;7.13;2.30;;;;;;;13.55;71.95;93573.22;5033596;28;20194;-60
2022/04/23 03:56:47;;;;;;;6.65;2.30;;;;;;;13.80;71.46;93595.00;5033833;28;20594;-61
2022/04/23 03:59:14;;;;;;;4.97;2.37;;;;;;;13.87;71.60;93580.56;5032047;28;20185;-60
2022/04/23 04:01:41;;;;;;;3.33;1.97;;;;;;;13.92;71.40;93594.38;5040858;23;20263;-62
2022/04/23 04:04:06;;;;;;;5.63;2.10;;;;;;;13.90;71.44;93598.06;5033335;28;20197;-62
2022/04/23 04:06:33;;;;;;;9.32;2.50;;;;;;;13.93;71.01;93610.50;5033556;28;20210;-62
2022/04/23 04:08:58;;;;;;;6.32;2.17;;;;;;;13.94;70.54;93617.19;5032089;28;20166;-62
2022/04/23 04:11:24;;;;;;;4.25;2.47;;;;;;;14.17;69.44;93644.28;5033519;28;20202;-63
2022/04/23 04:13:49;;;;;;;5.30;2.47;;;;;;;14.07;69.21;93638.63;5031917;28;20182;-60
2022/04/23 04:16:17;;;;;;;3.60;1.87;;;;;;;14.02;69.21;93640.09;5033552;28;20214;-60
2022/04/23 04:18:42;;;;;;;4.68;2.47;;;;;;;13.98;69.06;93638.88;5033388;28;20244;-62
2022/04/23 04:21:08;;;;;;;3.60;2.25;;;;;;;13.93;69.41;93631.75;5033181;28;20183;-61
2022/04/23 04:23:34;;;;;;;12.50;2.95;;;;;;;13.90;69.92;93629.53;5033390;28;20179;-65
2022/04/23 04:26:00;;;;;;;7.10;3.13;;;;;;;14.06;69.27;93634.47;5033146;28;20543;-62
2022/04/23 04:28:26;;;;;;;5.37;2.40;;;;;;;14.21;69.39;93644.72;5032934;28;20194;-60
2022/04/23 04:33:36;;;;;;;4.87;2.47;;;;;;;14.02;69.44;93633.25;5033809;28;20178;-62
2022/04/23 04:36:02;;;;;;;11.87;2.87;;;;;;;14.15;68.52;93647.97;5033266;28;20210;-62
2022/04/23 04:38:28;;;;;;;8.02;2.78;;;;;;;14.21;69.23;93642.16;5031686;28;20198;-61
2022/04/23 04:40:54;;;;;;;5.60;2.22;;;;;;;13.98;68.22;93662.66;5031641;28;20868;-62
2022/04/23 04:43:19;;;;;;;7.70;2.85;;;;;;;14.05;68.93;93648.25;5032860;28;20575;-60
2022/04/23 04:45:45;;;;;;;5.78;2.38;;;;;;;13.99;69.01;93641.28;5032914;28;20202;-62
2022/04/23 04:48:10;;;;;;;4.17;2.20;;;;;;;14.10;66.91;93691.13;5032933;28;20637;-61
2022/04/23 04:50:35;;;;;;;7.50;2.90;;;;;;;13.99;68.31;93668.59;5032611;28;20194;-60
2022/04/23 04:53:01;;;;;;;11.52;3.22;;;;;;;13.84;68.09;93662.63;5032368;28;20224;-60
2022/04/23 04:55:27;;;;;;;4.22;2.28;;;;;;;14.26;67.36;93681.56;5031328;28;20186;-61
2022/04/23 04:57:52;;;;;;;7.93;2.80;;;;;;;14.28;66.79;93682.19;5032699;28;20194;-62
2022/04/23 05:00:18;;;;;;;6.70;2.65;;;;;;;13.90;68.48;93665.31;5032310;28;20707;-62
2022/04/23 05:02:44;;;;;;;4.53;2.33;;;;;;;14.08;68.84;93663.22;5032239;28;20703;-61
2022/04/23 05:05:10;;;;;;;4.33;2.53;;;;;;;14.33;68.98;93671.44;5032746;28;20175;-63
2022/04/23 05:07:35;;;;;;;15.80;6.18;;;;;;;13.93;69.09;93671.84;5032278;28;20205;-63
2022/04/23 05:10:01;;;;;;;15.60;6.20;;;;;;;14.09;69.05;93684.44;5031000;28;20206;-62
2022/04/23 05:12:27;;;;;;;4.63;2.72;;;;;;;14.33;68.19;93702.13;5032428;28;20600;-59
2022/04/23 05:14:52;;;;;;;10.35;2.83;;;;;;;14.41;68.00;93702.03;5032424;28;20170;-61
2022/04/23 05:17:18;;;;;;;7.00;2.40;;;;;;;14.35;70.01;93673.81;5032179;28;20229;-63
2022/04/23 05:19:44;;;;;;;4.80;2.30;;;;;;;14.42;69.60;93687.50;5039027;23;20237;-62
2022/04/23 05:22:09;;;;;;;7.40;2.85;;;;;;;14.30;69.29;93710.16;5030810;28;20258;-62
2022/04/23 05:24:35;;;;;;;8.10;3.90;;;;;;;14.54;69.03;93720.13;5032682;28;20186;-61
2022/04/23 05:27:01;;;;;;;5.13;3.00;;;;;;;14.72;67.28;93753.03;5032240;28;20201;-64
2022/04/23 05:29:26;;;;;;;10.55;3.95;;;;;;;14.63;68.47;93743.84;5032289;28;20186;-61
2022/04/23 05:31:52;;;;;;;11.00;4.22;;;;;;;14.70;67.04;93762.66;5032422;28;20564;-61
2022/04/23 05:34:17;;;;;;;13.20;4.72;;;;;;;14.67;66.01;93775.78;5032151;28;20182;-62
2022/04/23 05:36:43;;;;;;;9.60;4.73;;;;;;;14.56;66.97;93761.69;5031932;28;20210;-62
2022/04/23 05:39:14;;;;;;;9.35;4.35;;;;;;;14.65;67.10;93747.81;5032108;28;20251;-62
2022/04/23 05:41:40;;;;;;;7.13;4.37;;;;;;;14.78;66.20;93770.22;5032384;28;20213;-63
2022/04/23 05:44:05;;;;;;;13.52;4.78;;;;;;;14.89;66.08;93775.69;5032590;28;20182;-62
2022/04/23 05:46:31;;;;;;;10.13;4.68;;;;;;;15.14;66.11;93765.97;5035843;28;20225;-62
2022/04/23 05:48:56;;;;;;;8.68;4.93;;;;;;;15.31;68.01;93743.50;5034485;28;20179;-61
2022/04/23 05:51:23;;;;;;;12.30;4.80;;;;;;;15.07;66.14;93771.00;5036070;28;20540;-63
2022/04/23 05:53:49;;;;;;;11.98;4.53;;;;;;;14.82;67.14;93756.91;5034531;28;20193;-62
2022/04/23 05:56:14;;;;;;;6.57;4.60;;;;;;;14.78;66.43;93763.34;5036457;28;20675;-61
2022/04/23 05:58:40;;;;;;;9.18;4.65;;;;;;;14.68;66.59;93762.84;5036314;28;20201;-62
2022/04/23 06:01:05;;;;;;;8.77;4.07;;;;;;;14.60;67.34;93749.31;5035634;28;20257;-62
2022/04/23 06:03:31;;;;;;;12.67;4.23;;;;;;;14.58;66.92;93752.06;5034378;28;20585;-61
2022/04/23 06:05:57;;;;;;;10.25;4.75;;;;;;;14.62;67.49;93742.28;5036242;28;20251;-62
2022/04/23 06:08:22;;;;;;;4.97;3.63;;;;;;;14.69;66.68;93751.63;5035366;28;20222;-62
2022/04/23 06:10:48;;;;;;;9.52;4.60;;;;;;;14.81;67.80;93746.84;5035914;28;20200;-61
2022/04/23 06:13:14;;;;;;;8.80;4.20;;;;;;;15.22;67.14;93755.63;5035473;28;20581;-68
2022/04/23 06:15:40;;;;;;;7.67;3.67;;;;;;;15.23;66.38;93762.31;5036100;28;20281;-62
2022/04/23 06:18:06;;;;;;;9.68;3.55;;;;;;;15.29;67.57;93745.47;5035860;28;20205;-60
2022/04/23 06:20:31;;;;;;;9.00;3.65;;;;;;;15.20;68.56;93731.97;5034327;28;20198;-62
2022/04/23 06:22:57;;;;;;;8.82;3.97;;;;;;;15.33;68.65;93739.00;5033988;28;20202;-60
2022/04/23 06:25:22;;;;;;;6.78;3.53;;;;;;;15.67;67.33;93759.69;5036599;28;20225;-62
2022/04/23 06:27:50;;;;;;;5.10;3.42;;;;;;;15.78;67.51;93756.63;5035650;28;20190;-62
2022/04/23 06:30:16;;;;;;;7.72;3.35;;;;;;;15.82;66.95;93762.97;5034905;28;20191;-61
2022/04/23 06:32:42;;;;;;;8.13;3.45;;;;;;;16.05;67.05;93767.91;5035334;28;20705;-61
2022/04/23 06:35:08;;;;;;;7.97;4.18;;;;;;;16.09;68.39;93739.16;5035305;28;20240;-61
2022/04/23 06:37:42;;;;;;;8.07;3.78;;;;;;;16.29;67.25;93768.31;5035369;28;20214;-63
2022/04/23 06:40:11;;;;;;;8.77;3.83;;;;;;;16.53;67.82;93754.28;5035353;28;20186;-61
2022/04/23 06:42:37;;;;;;;5.15;3.97;;;;;;;16.52;67.61;93756.06;5034761;28;20573;-62
2022/04/23 06:45:02;;;;;;;7.82;3.92;;;;;;;16.49;68.70;93735.91;5034948;28;20264;-60
2022/04/23 06:47:28;;;;;;;6.07;3.75;;;;;;;16.52;69.21;93730.41;5034909;28;20210;-63
2022/04/23 06:49:56;;;;;;;9.80;3.92;;;;;;;16.55;67.77;93755.69;5033590;28;20194;-63
2022/04/23 06:52:22;;;;;;;12.68;4.15;;;;;;;16.44;68.96;93729.75;5034635;28;20198;-60
2022/04/23 06:54:47;;;;;;;9.32;3.63;;;;;;;16.26;69.96;93724.28;5034659;28;20178;-61
2022/04/23 06:57:13;;;;;;;6.95;4.82;;;;;;;16.30;69.36;93730.63;5034320;28;20749;-62
2022/04/23 06:59:38;;;;;;;6.38;3.95;;;;;;;16.78;66.40;93781.13;5034628;28;20197;-63
2022/04/23 07:02:04;;;;;;;7.82;3.67;;;;;;;16.80;65.66;93794.56;5034491;28;20583;-62
2022/04/23 07:04:30;;;;;;;7.55;3.72;;;;;;;16.64;67.60;93766.63;5035111;28;20194;-63
2022/04/23 07:06:56;;;;;;;7.03;3.80;;;;;;;16.86;66.83;93793.00;5033048;28;20757;-61
2022/04/23 07:09:21;;;;;;;9.98;3.50;;;;;;;17.13;65.21;93810.91;5032858;28;20663;-62
2022/04/23 07:11:47;;;;;;;7.30;4.13;;;;;;;16.76;66.75;93780.50;5034741;28;21356;-63
2022/04/23 07:14:13;;;;;;;7.40;4.93;;;;;;;16.63;67.19;93770.94;5034067;28;20606;-62
2022/04/23 07:16:39;;;;;;;7.95;4.65;;;;;;;16.99;66.91;93781.03;5034221;28;20210;-64
2022/04/23 07:19:07;;;;;;;11.18;5.20;;;;;;;17.01;67.95;93770.56;5032700;28;20175;-63
2022/04/23 07:21:33;;;;;;;8.55;4.68;;;;;;;17.10;66.89;93795.09;5033866;28;20236;-62
2022/04/23 07:24:05;;;;;;;8.95;5.20;;;;;;;17.13;66.90;93792.16;5032854;28;20656;-60
2022/04/23 07:26:34;;;;;;;9.98;5.47;;;;;;;17.27;67.58;93794.59;5032608;28;20590;-62
2022/04/23 07:29:02;;;;;;;8.60;5.15;;;;;;;17.40;67.48;93797.22;5034114;28;20178;-63
2022/04/23 07:31:28;;;;;;;9.60;5.25;;;;;;;17.31;68.62;93779.59;5033002;28;20187;-61
2022/04/23 07:39:29;;;;;;;9.00;3.50;;;;;;;17.48;68.85;93791.13;5034018;28;20666;-60
2022/04/23 07:41:55;;;;;;;6.80;3.95;;;;;;;17.27;70.95;93753.47;5034562;28;20289;-62
2022/04/23 07:44:24;;;;;;;3.92;2.60;;;;;;;17.37;69.18;93792.44;5033891;28;20200;-62
2022/04/23 07:46:50;;;;;;;7.35;2.53;;;;;;;17.38;69.22;93791.47;5033792;28;20213;-63
2022/04/23 07:49:16;;;;;;;5.90;2.90;;;;;;;17.47;69.83;93781.84;5033665;28;20187;-62
2022/04/23 07:51:43;;;;;;;6.78;4.05;;;;;;;17.40;70.09;93792.09;5033560;28;20200;-63
2022/04/23 07:54:08;;;;;;;5.85;2.67;;;;;;;17.41;67.32;93828.84;5033126;28;20181;-63
2022/04/23 07:56:35;;;;;;;10.18;2.75;;;;;;;17.25;68.17;93811.97;5033313;28;20675;-62
2022/04/23 07:59:00;;;;;;;4.75;2.88;;;;;;;16.91;70.46;93777.84;5033347;28;20183;-60
2022/04/23 08:01:26;;;;;;;3.90;2.78;;;;;;;16.41;72.48;93748.88;5033238;28;20175;-61
2022/04/23 08:03:51;;;;;;;6.60;2.50;;;;;;;16.67;72.36;93756.75;5031920;28;20207;-62
2022/04/23 08:06:16;;;;;;;7.75;2.70;;;;;;;16.20;73.16;93745.56;5033664;28;20182;-61
2022/04/23 08:08:43;;;;;;;8.32;3.55;;;;;;;16.00;75.92;93719.75;5032702;28;20174;-60
2022/04/23 08:11:09;;;;;;;5.68;2.78;;;;;;;16.29;75.47;93729.84;5033473;28;20193;-60
2022/04/23 08:13:34;;;;;;;7.50;2.88;;;;;;;16.48;76.51;93741.22;5033282;28;20182;-61
2022/04/23 08:16:00;;;;;;;8.55;3.55;;;;;;;16.10;77.06;93742.53;5033393;28;20206;-61
2022/04/23 08:18:29;;;;;;;7.28;2.72;;;;;;;15.65;79.62;93730.88;5033119;28;20194;-63
2022/04/23 08:20:55;;;;;;;7.28;2.75;;;;;;;15.77;79.40;93737.09;5031737;28;20194;-61
2022/04/23 08:23:21;;;;;;;7.43;3.08;;;;;;;15.98;79.25;93739.66;5032694;28;20190;-60
2022/04/23 08:25:47;;;;;;;3.67;2.03;;;;;;;16.46;77.69;93766.28;5032601;28;20273;-61
2022/04/23 08:31:00;;;;;;;5.70;2.53;;;;;;;16.33;78.72;93748.19;5033683;28;20268;-62
2022/04/23 08:33:57;;;;;;;7.10;3.30;;;;;;;16.60;80.74;93726.91;5032800;28;20268;-63
2022/04/23 08:36:11;;;;;;;7.40;2.78;;;;;;;16.45;78.26;93762.09;5034057;28;20225;-62
2022/04/23 08:38:36;;;;;;;4.97;2.17;;;;;;;16.46;79.46;93743.19;5034022;28;20562;-62
2022/04/23 08:41:03;;;;;;;3.80;2.53;;;;;;;16.52;78.52;93770.69;5033403;28;20264;-62
2022/04/23 08:43:29;;;;;;;7.60;2.40;;;;;;;16.54;77.82;93768.72;5032593;28;20209;-63
2022/04/23 08:45:55;;;;;;;3.58;2.03;;;;;;;16.50;76.57;93793.16;5031405;28;20182;-63
2022/04/23 08:48:21;;;;;;;4.18;2.47;;;;;;;16.46;76.07;93800.38;5032293;28;20206;-62
2022/04/23 08:50:49;;;;;;;3.42;1.27;;;;;;;16.11;76.26;93795.38;5033004;28;20210;-61
2022/04/23 08:53:18;;;;;;;4.18;2.10;;;;;;;16.30;77.70;93776.81;5032155;28;20210;-62
2022/04/23 08:55:46;;;;;;;3.72;1.27;;;;;;;16.13;74.94;93821.63;5032871;28;20550;-64
2022/04/23 08:58:13;;;;;;;6.43;1.80;;;;;;;15.96;75.44;93815.94;5032437;28;20244;-62
2022/04/23 09:00:39;;;;;;;2.28;1.60;;;;;;;15.86;75.87;93800.06;5032571;28;20190;-61
2022/04/23 09:03:05;;;;;;;3.50;1.70;;;;;;;15.92;75.69;93807.03;5032192;28;20221;-61
2022/04/23 09:05:31;;;;;;;3.25;1.58;;;;;;;16.08;75.02;93823.97;5032495;28;20209;-63
2022/04/23 09:07:56;;;;;;;1.75;1.30;;;;;;;16.06;74.17;93831.03;5030748;28;20206;-61
2022/04/23 09:10:59;;;;;;;4.45;2.38;;;;;;;16.22;73.77;93834.13;5032383;28;20182;-62
2022/04/23 09:13:25;;;;;;;4.80;2.15;;;;;;;16.67;72.49;93853.47;5032049;28;20315;-63
2022/04/23 09:24:46;;;;;;;3.10;1.70;;;;;;;17.86;68.74;93889.94;5032259;28;20236;-62
2022/04/23 09:27:12;;;;;;;2.88;1.52;;;;;;;17.79;66.32;93929.50;5032200;28;20203;-63
2022/04/23 09:29:37;;;;;;;4.00;1.80;;;;;;;17.12;67.72;93893.31;5031811;28;20190;-61
2022/04/23 09:32:21;;;;;;;2.97;1.65;;;;;;;16.76;69.58;93854.94;5031818;28;20194;-62
2022/04/23 09:34:46;;;;;;;5.20;2.22;;;;;;;16.46;70.51;93844.00;5032096;28;20544;-61
2022/04/23 09:37:12;;;;;;;4.78;1.70;;;;;;;16.42;71.23;93836.88;5031890;28;20214;-60
2022/04/23 09:39:40;;;;;;;4.10;1.38;;;;;;;15.99;72.59;93813.03;5031969;28;20269;-61
2022/04/23 09:42:19;;;;;;;3.85;1.73;;;;;;;15.83;73.56;93790.19;5030905;28;20290;-62
2022/04/23 09:44:46;;;;;;;3.35;1.40;;;;;;;15.77;74.04;93781.47;5032253;28;20186;-62
2022/04/23 09:47:29;;;;;;;5.18;1.67;;;;;;;15.76;73.44;93771.38;5033331;28;20205;-63
2022/04/23 09:49:55;;;;;;;3.60;1.40;;;;;;;16.03;73.51;93791.16;5031891;28;20281;-64
2022/04/23 09:52:28;;;;;;;4.75;1.58;;;;;;;16.54;72.14;93815.69;5031965;28;20282;-62
2022/04/23 09:54:55;;;;;;;4.68;1.65;;;;;;;16.48;71.39;93826.66;5031613;28;20615;-61
2022/04/23 09:57:22;;;;;;;3.42;1.70;;;;;;;16.38;71.61;93826.19;5031831;28;20214;-62
2022/04/23 09:59:51;;;;;;;3.80;1.90;;;;;;;16.31;72.38;93799.69;5031948;28;20191;-63
2022/04/23 10:02:19;;;;;;;2.13;1.40;;;;;;;16.45;71.82;93809.09;5031943;28;20570;-63
2022/04/23 10:04:46;;;;;;;4.07;1.48;;;;;;;16.58;71.82;93811.00;5030147;28;20555;-60
2022/04/23 10:07:13;;;;;;;6.38;2.53;;;;;;;16.62;71.78;93812.97;5031566;28;20201;-62
2022/04/23 10:09:44;;;;;;;6.43;2.40;;;;;;;16.45;73.16;93787.75;5030374;28;20191;-61
2022/04/23 10:12:14;;;;;;;4.20;2.30;;;;;;;16.96;71.50;93830.19;5031427;28;20638;-62
2022/04/23 10:14:46;;;;;;;5.45;2.40;;;;;;;17.96;69.24;93869.81;5030266;28;20640;-61
2022/04/23 10:17:14;;;;;;;6.10;1.73;;;;;;;19.23;67.15;93902.22;5029922;28;20220;-61
2022/04/23 10:19:41;;;;;;;4.53;1.95;;;;;;;19.60;61.24;93989.25;5031499;28;20248;-63
2022/04/23 10:22:29;;;;;;;4.72;1.70;;;;;;;19.63;60.15;94003.53;5030211;28;20585;-63
2022/04/23 10:25:24;;;;;;;4.60;2.10;;;;;;;19.94;58.77;93959.78;5014878;28;20190;-63
2022/04/23 10:27:51;;;;;;;6.07;2.10;;;;;;;20.07;57.88;93939.13;5031699;28;20206;-61
2022/04/23 10:30:17;;;;;;;8.13;2.20;;;;;;;19.94;58.60;93919.31;5033474;28;20296;-61
2022/04/23 10:32:43;;;;;;;5.85;2.22;;;;;;;20.15;57.56;93935.50;5034807;28;20281;-62
2022/04/23 10:35:17;;;;;;;7.68;2.58;;;;;;;21.03;58.08;93925.09;5034575;28;20201;-63
2022/04/23 10:37:45;;;;;;;8.45;1.83;;;;;;;21.24;53.30;93986.78;5034371;28;20217;-63
2022/04/23 10:40:10;;;;;;;3.17;1.75;;;;;;;21.93;54.02;93957.31;5035806;28;20198;-63
2022/04/23 10:42:38;;;;;;;4.68;1.92;;;;;;;21.65;51.50;93981.81;5034864;28;20209;-64
2022/04/23 10:45:05;;;;;;;7.68;2.33;;;;;;;21.30;50.68;93988.50;5034639;28;20558;-62
2022/04/23 10:47:34;;;;;;;6.28;2.08;;;;;;;21.95;52.26;93956.09;5035066;28;20205;-64
2022/04/23 10:50:15;;;;;;;4.78;1.88;;;;;;;22.06;49.16;93994.19;5034986;28;20216;-64
2022/04/23 10:52:42;;;;;;;6.07;1.77;;;;;;;22.87;48.87;94002.38;5034789;28;20277;-64
2022/04/23 10:55:09;;;;;;;4.03;2.13;;;;;;;22.73;48.65;93988.03;5034851;28;20179;-63
2022/04/23 10:57:35;;;;;;;6.78;1.90;;;;;;;23.50;48.15;93999.28;5034114;28;20221;-62
2022/04/23 11:00:16;;;;;;;4.82;1.88;;;;;;;24.28;46.42;94013.47;5034839;28;20182;-62
2022/04/23 11:02:46;;;;;;;8.73;2.33;;;;;;;23.23;46.41;94010.03;5034568;28;20220;-63
2022/04/23 11:13:53;;;;;;;10.27;2.40;;;;;;;22.09;48.58;93941.19;5034763;28;20647;-62
2022/04/23 11:16:21;;;;;;;9.57;2.67;;;;;;;22.57;49.45;93934.19;5034239;28;20211;-63
2022/04/23 11:18:50;;;;;;;6.95;2.67;;;;;;;22.33;49.44;93924.75;5033009;28;20182;-62
2022/04/23 11:21:26;;;;;;;6.07;2.30;;;;;;;22.08;49.67;93929.25;5033958;28;20174;-62
2022/04/23 11:23:57;;;;;;;3.35;2.25;;;;;;;21.61;50.37;93917.81;5034464;28;20635;-62
2022/04/23 11:26:44;;;;;;;4.50;2.10;;;;;;;21.89;48.97;93938.84;5034173;28;20181;-62
2022/04/23 11:29:11;;;;;;;6.03;2.50;;;;;;;22.60;49.87;93913.06;5032864;28;20186;-64
2022/04/23 11:31:36;;;;;;;7.47;2.20;;;;;;;22.88;46.04;93990.22;5032999;28;20206;-62
2022/04/23 11:34:03;;;;;;;8.38;2.38;;;;;;;23.12;45.78;93989.25;5033880;28;20197;-62
2022/04/23 11:36:33;;;;;;;6.40;2.92;;;;;;;22.56;46.51;93974.84;5034007;28;20301;-63
2022/04/23 11:39:09;;;;;;;4.43;1.90;;;;;;;23.17;44.80;94008.31;5033792;28;20201;-64
2022/04/23 11:41:38;;;;;;;7.25;2.22;;;;;;;22.55;45.57;93983.66;5033320;28;20216;-61
2022/04/23 11:44:50;;;;;;;5.20;2.03;;;;;;;23.66;45.25;93983.81;5033560;28;20194;-63
2022/04/23 11:47:28;;;;;;;8.07;2.22;;;;;;;22.75;44.88;93986.00;5033234;28;20194;-64
2022/04/23 11:49:53;;;;;;;9.38;1.98;;;;;;;21.80;47.67;93927.13;5033414;28;20209;-63
2022/04/23 11:52:20;;;;;;;9.25;2.53;;;;;;;21.42;48.73;93914.41;5033438;28;20194;-62
2022/04/23 11:54:46;;;;;;;9.25;2.55;;;;;;;21.04;50.70;93885.31;5032375;28;20269;-66
2022/04/23 11:57:13;;;;;;;7.20;2.35;;;;;;;20.55;51.10;93880.91;5032065;28;20293;-62
2022/04/23 11:59:40;;;;;;;6.30;1.98;;;;;;;20.62;53.33;93832.56;5033551;28;20194;-62
2022/04/23 12:02:21;;;;;;;3.33;1.45;;;;;;;20.75;52.62;93862.66;5033386;28;20297;-62